createdAt,value
2023-01-12T00:00:43.770Z,39.00
2023-01-12T00:01:48.303Z,39.10
2023-01-12T00:02:55.507Z,39.10
2023-01-12T00:04:04.985Z,39.10
2023-01-12T00:05:29.008Z,39.10
2023-01-12T00:06:38.534Z,39.10
2023-01-12T00:07:57.516Z,39.10
2023-01-12T00:09:10.868Z,39.10
2023-01-12T00:10:17.987Z,39.10
2023-01-12T00:11:24.474Z,39.10
2023-01-12T00:12:44.861Z,39.10
2023-01-12T00:13:58.492Z,39.10
2023-01-12T00:15:16.963Z,39.10
2023-01-12T00:16:36.756Z,39.10
2023-01-12T00:17:50.410Z,39.10
2023-01-12T00:18:59.084Z,39.10
2023-01-12T00:20:05.494Z,39.10
2023-01-12T00:21:21.441Z,39.10
2023-01-12T00:23:59.247Z,39.10
2023-01-12T00:25:04.781Z,39.10
2023-01-12T00:26:10.666Z,39.10
2023-01-12T00:27:26.849Z,39.10
2023-01-12T00:28:53.715Z,39.10
2023-01-12T00:30:09.202Z,39.00
2023-01-12T00:31:48.655Z,39.10
2023-01-12T00:33:05.870Z,39.10
2023-01-12T00:34:12.080Z,39.10
2023-01-12T00:35:26.755Z,39.10
2023-01-12T00:36:38.668Z,39.10
2023-01-12T00:37:57.260Z,39.70
2023-01-12T00:39:04.057Z,39.10
2023-01-12T00:40:18.775Z,39.10
2023-01-12T00:41:49.320Z,39.10
2023-01-12T00:43:17.336Z,39.10
2023-01-12T00:44:39.878Z,39.10
2023-01-12T00:46:04.177Z,39.10
2023-01-12T00:47:12.383Z,39.10
2023-01-12T00:48:22.744Z,39.10
2023-01-12T00:49:32.444Z,39.10
2023-01-12T00:52:30.068Z,39.10
2023-01-12T00:53:41.304Z,39.10
2023-01-12T00:54:50.284Z,39.00
2023-01-12T00:56:05.083Z,39.10
2023-01-12T00:57:20.452Z,39.10
2023-01-12T00:59:59.492Z,39.10
2023-01-12T01:02:47.019Z,39.10
2023-01-12T01:03:53.345Z,39.10
2023-01-12T01:05:00.681Z,39.10
2023-01-12T01:07:38.164Z,39.10
2023-01-12T01:10:35.098Z,39.00
2023-01-12T01:11:44.354Z,39.10
2023-01-12T01:12:56.717Z,39.10
2023-01-12T01:14:08.181Z,39.10
2023-01-12T01:15:19.551Z,39.10
2023-01-12T01:17:47.648Z,39.00
2023-01-12T01:20:25.184Z,39.10
2023-01-12T01:21:45.561Z,39.10
2023-01-12T01:22:52.137Z,39.10
2023-01-12T01:23:58.690Z,39.00
2023-01-12T01:26:30.388Z,39.10
2023-01-12T01:27:45.901Z,39.10
2023-01-12T01:28:58.786Z,39.10
2023-01-12T01:30:16.301Z,39.60
2023-01-12T01:31:24.452Z,39.10
2023-01-12T01:32:33.048Z,39.10
2023-01-12T01:33:57.759Z,39.10
2023-01-12T01:35:38.930Z,39.10
2023-01-12T01:36:57.106Z,39.10
2023-01-12T01:38:11.159Z,39.10
2023-01-12T01:39:49.294Z,39.00
2023-01-12T01:41:16.159Z,39.70
2023-01-12T01:42:47.159Z,39.10
2023-01-12T01:44:09.620Z,39.10
2023-01-12T01:45:22.780Z,39.10
2023-01-12T01:46:41.353Z,39.10
2023-01-12T01:47:52.888Z,39.10
2023-01-12T01:49:05.885Z,39.10
2023-01-12T01:50:25.089Z,39.10
2023-01-12T01:51:41.994Z,39.10
2023-01-12T01:52:55.352Z,39.00
2023-01-12T01:54:16.520Z,39.10
2023-01-12T01:55:28.709Z,39.10
2023-01-12T01:56:44.986Z,39.10
2023-01-12T01:58:03.586Z,39.10
2023-01-12T01:59:11.307Z,39.00
2023-01-12T02:00:17.467Z,39.10
2023-01-12T02:01:22.926Z,39.10
2023-01-12T02:02:28.798Z,39.00
2023-01-12T02:05:00.583Z,39.00
2023-01-12T02:06:24.560Z,39.10
2023-01-12T02:07:31.745Z,39.10
2023-01-12T02:08:42.392Z,39.50
2023-01-12T02:09:46.873Z,39.60
2023-01-12T02:12:40.283Z,39.10
2023-01-12T02:15:58.457Z,39.00
2023-01-12T02:17:14.776Z,39.10
2023-01-12T02:18:38.946Z,39.10
2023-01-12T02:20:06.446Z,39.10
2023-01-12T02:21:47.842Z,39.10
2023-01-12T02:24:35.989Z,39.10
2023-01-12T02:26:01.642Z,39.10
2023-01-12T02:27:28.208Z,39.10
2023-01-12T02:28:54.945Z,39.00
2023-01-12T02:30:32.944Z,39.00
2023-01-12T02:31:45.564Z,39.00
2023-01-12T02:33:05.193Z,39.00
2023-01-12T02:34:32.459Z,39.00
2023-01-12T02:36:01.402Z,39.10
2023-01-12T02:37:15.092Z,39.00
2023-01-12T02:40:07.906Z,39.00
2023-01-12T02:41:45.576Z,39.10
2023-01-12T02:43:17.150Z,39.00
2023-01-12T02:44:29.479Z,39.00
2023-01-12T02:45:51.945Z,39.00
2023-01-12T02:47:15.124Z,39.00
2023-01-12T02:48:29.160Z,39.10
2023-01-12T02:49:40.456Z,39.10
2023-01-12T02:51:16.272Z,39.00
2023-01-12T02:52:24.590Z,39.20
2023-01-12T02:53:50.307Z,39.00
2023-01-12T02:58:11.909Z,39.10
2023-01-12T02:59:27.596Z,39.00
2023-01-12T03:00:38.836Z,39.00
2023-01-12T03:02:07.274Z,39.00
2023-01-12T03:03:16.747Z,39.00
2023-01-12T03:04:27.809Z,39.00
2023-01-12T03:05:57.104Z,39.00
2023-01-12T03:07:21.253Z,39.00
2023-01-12T03:08:36.071Z,39.00
2023-01-12T03:09:50.068Z,39.10
2023-01-12T03:11:11.751Z,39.10
2023-01-12T03:12:33.751Z,39.00
2023-01-12T03:13:54.214Z,39.00
2023-01-12T03:15:17.667Z,39.00
2023-01-12T03:16:27.309Z,39.00
2023-01-12T03:17:47.217Z,39.00
2023-01-12T03:19:00.981Z,39.10
2023-01-12T03:20:15.629Z,39.00
2023-01-12T03:21:30.173Z,39.00
2023-01-12T03:22:49.540Z,39.00
2023-01-12T03:24:00.803Z,39.00
2023-01-12T03:25:18.270Z,39.40
2023-01-12T03:26:32.357Z,39.00
2023-01-12T03:29:30.358Z,39.00
2023-01-12T03:30:38.576Z,39.00
2023-01-12T03:31:53.418Z,39.00
2023-01-12T03:34:36.656Z,39.00
2023-01-12T03:38:21.056Z,39.00
2023-01-12T03:39:59.080Z,39.00
2023-01-12T03:41:23.143Z,39.00
2023-01-12T03:44:03.096Z,39.00
2023-01-12T03:45:17.671Z,39.00
2023-01-12T03:46:46.765Z,39.00
2023-01-12T03:47:59.346Z,39.00
2023-01-12T03:49:11.625Z,39.00
2023-01-12T03:50:44.440Z,39.00
2023-01-12T03:51:59.571Z,39.00
2023-01-12T03:53:28.132Z,39.00
2023-01-12T03:54:39.127Z,39.00
2023-01-12T03:56:04.121Z,39.00
2023-01-12T03:58:39.925Z,39.00
2023-01-12T04:00:16.996Z,39.00
2023-01-12T04:01:38.617Z,39.00
2023-01-12T04:05:42.835Z,39.00
2023-01-12T04:07:05.045Z,39.00
2023-01-12T04:08:16.363Z,39.00
2023-01-12T04:09:32.013Z,39.00
2023-01-12T04:10:42.796Z,39.00
2023-01-12T04:12:05.531Z,39.00
2023-01-12T04:13:32.353Z,38.90
2023-01-12T04:14:51.181Z,39.00
2023-01-12T04:17:39.417Z,39.00
2023-01-12T04:19:00.958Z,39.00
2023-01-12T04:21:54.965Z,39.00
2023-01-12T04:23:04.569Z,38.90
2023-01-12T04:24:19.422Z,39.00
2023-01-12T04:25:46.049Z,38.90
2023-01-12T04:26:58.099Z,38.90
2023-01-12T04:28:27.476Z,39.00
2023-01-12T04:29:47.595Z,39.00
2023-01-12T04:30:59.843Z,39.00
2023-01-12T04:32:09.680Z,38.90
2023-01-12T04:33:28.290Z,38.90
2023-01-12T04:34:35.722Z,38.90
2023-01-12T04:36:00.770Z,39.00
2023-01-12T04:37:10.525Z,38.90
2023-01-12T04:38:20.380Z,39.00
2023-01-12T04:39:42.946Z,39.00
2023-01-12T04:40:55.612Z,39.00
2023-01-12T04:42:06.157Z,39.00
2023-01-12T04:43:21.544Z,39.00
2023-01-12T04:44:33.416Z,39.00
2023-01-12T04:45:47.398Z,39.00
2023-01-12T04:46:58.975Z,39.10
2023-01-12T04:48:33.644Z,38.90
2023-01-12T04:49:48.425Z,38.90
2023-01-12T04:52:21.643Z,38.90
2023-01-12T04:54:04.916Z,38.90
2023-01-12T04:55:33.213Z,38.90
2023-01-12T04:56:43.276Z,38.90
2023-01-12T04:59:26.092Z,39.00
2023-01-12T05:00:41.159Z,38.90
2023-01-12T05:02:01.965Z,38.90
2023-01-12T05:03:12.793Z,39.50
2023-01-12T05:04:37.642Z,38.90
2023-01-12T05:05:51.687Z,38.90
2023-01-12T05:07:12.967Z,38.90
2023-01-12T05:08:40.057Z,38.90
2023-01-12T05:10:16.282Z,38.90
2023-01-12T05:11:35.202Z,39.10
2023-01-12T05:14:15.177Z,38.90
2023-01-12T05:15:22.228Z,38.80
2023-01-12T05:16:26.652Z,38.80
2023-01-12T05:17:35.387Z,38.80
2023-01-12T05:18:50.190Z,38.90
2023-01-12T05:20:00.736Z,38.80
2023-01-12T05:21:06.678Z,38.90
2023-01-12T05:22:11.533Z,38.80
2023-01-12T05:23:17.851Z,38.80
2023-01-12T05:24:22.969Z,38.80
2023-01-12T05:25:28.095Z,38.80
2023-01-12T05:26:35.257Z,38.80
2023-01-12T05:27:43.766Z,38.80
2023-01-12T05:28:55.407Z,38.80
2023-01-12T05:30:00.335Z,38.80
2023-01-12T05:31:09.007Z,38.80
2023-01-12T05:32:15.033Z,38.80
2023-01-12T05:33:20.828Z,38.80
2023-01-12T05:34:26.097Z,38.80
2023-01-12T05:35:32.558Z,38.70
2023-01-12T05:36:35.765Z,38.70
2023-01-12T05:37:42.186Z,38.70
2023-01-12T05:38:55.219Z,38.80
2023-01-12T05:39:59.532Z,38.70
2023-01-12T05:41:04.443Z,38.70
2023-01-12T05:42:27.140Z,38.70
2023-01-12T05:43:48.943Z,38.70
2023-01-12T05:45:01.784Z,38.70
2023-01-12T05:46:08.801Z,38.70
2023-01-12T05:47:19.448Z,38.70
2023-01-12T05:48:23.576Z,38.60
2023-01-12T05:49:28.543Z,38.60
2023-01-12T05:50:32.308Z,38.60
2023-01-12T05:51:46.081Z,38.60
2023-01-12T05:52:56.081Z,38.60
2023-01-12T05:53:58.882Z,38.60
2023-01-12T05:55:04.860Z,38.60
2023-01-12T05:56:22.338Z,38.60
2023-01-12T05:57:26.437Z,38.60
2023-01-12T05:58:31.521Z,38.60
2023-01-12T05:59:35.627Z,38.60
2023-01-12T06:00:43.180Z,38.60
2023-01-12T06:01:48.057Z,38.60
2023-01-12T06:02:51.399Z,38.60
2023-01-12T06:04:01.225Z,38.60
2023-01-12T06:05:08.996Z,38.60
2023-01-12T06:06:15.358Z,38.50
2023-01-12T06:07:19.485Z,38.60
2023-01-12T06:08:23.726Z,38.60
2023-01-12T06:09:28.912Z,38.50
2023-01-12T06:10:35.464Z,38.50
2023-01-12T06:11:57.253Z,38.50
2023-01-12T06:13:20.699Z,38.50
2023-01-12T06:14:24.637Z,38.70
2023-01-12T06:15:29.434Z,38.50
2023-01-12T06:16:34.372Z,38.50
2023-01-12T06:17:38.409Z,38.50
2023-01-12T06:18:48.206Z,38.50
2023-01-12T06:19:53.540Z,38.50
2023-01-12T06:21:01.507Z,38.50
2023-01-12T06:22:07.828Z,38.50
2023-01-12T06:23:15.318Z,38.50
2023-01-12T06:24:20.487Z,38.50
2023-01-12T06:25:26.655Z,38.80
2023-01-12T06:26:31.956Z,38.50
2023-01-12T06:27:39.540Z,38.50
2023-01-12T06:28:44.907Z,38.40
2023-01-12T06:29:50.102Z,38.50
2023-01-12T06:31:00.253Z,38.40
2023-01-12T06:32:06.411Z,38.50
2023-01-12T06:33:10.229Z,38.40
2023-01-12T06:34:16.127Z,38.40
2023-01-12T06:35:20.108Z,38.40
2023-01-12T06:36:27.072Z,38.80
2023-01-12T06:37:33.096Z,38.40
2023-01-12T06:38:42.845Z,38.40
2023-01-12T06:39:50.683Z,38.40
2023-01-12T06:40:58.127Z,38.40
2023-01-12T06:42:23.054Z,38.50
2023-01-12T06:43:26.266Z,38.30
2023-01-12T06:44:30.522Z,38.30
2023-01-12T06:45:35.996Z,38.30
2023-01-12T06:46:40.476Z,38.40
2023-01-12T06:47:45.456Z,38.30
2023-01-12T06:48:51.056Z,38.30
2023-01-12T06:49:59.766Z,38.30
2023-01-12T06:51:05.197Z,38.30
2023-01-12T06:52:09.149Z,38.30
2023-01-12T06:53:14.841Z,38.30
2023-01-12T06:54:25.748Z,38.30
2023-01-12T06:55:29.682Z,38.30
2023-01-12T06:56:34.101Z,38.30
2023-01-12T06:57:37.492Z,38.30
2023-01-12T06:58:43.642Z,38.30
2023-01-12T06:59:48.468Z,38.20
2023-01-12T07:00:53.661Z,38.20
2023-01-12T07:01:56.883Z,38.20
2023-01-12T07:03:04.369Z,38.20
2023-01-12T07:04:10.123Z,38.20
2023-01-12T07:05:14.867Z,38.20
2023-01-12T07:06:18.622Z,38.20
2023-01-12T07:07:21.495Z,38.20
2023-01-12T07:08:25.760Z,38.20
2023-01-12T07:09:32.232Z,38.20
2023-01-12T07:10:38.490Z,38.20
2023-01-12T07:11:43.457Z,38.20
2023-01-12T07:12:51.008Z,38.20
2023-01-12T07:13:56.896Z,38.20
2023-01-12T07:15:03.964Z,38.20
2023-01-12T07:16:09.358Z,38.20
2023-01-12T07:17:14.587Z,38.10
2023-01-12T07:18:19.074Z,38.10
2023-01-12T07:19:24.668Z,38.10
2023-01-12T07:20:29.334Z,38.10
2023-01-12T07:21:35.357Z,38.10
2023-01-12T07:22:39.734Z,38.10
2023-01-12T07:23:44.808Z,38.10
2023-01-12T07:24:57.786Z,38.10
2023-01-12T07:26:01.734Z,38.10
2023-01-12T07:27:05.765Z,38.10
2023-01-12T07:28:09.379Z,38.10
2023-01-12T07:29:12.660Z,38.00
2023-01-12T07:30:16.073Z,38.10
2023-01-12T07:31:19.721Z,37.80
2023-01-12T07:32:28.770Z,38.00
2023-01-12T07:33:33.818Z,38.00
2023-01-12T07:34:37.397Z,38.00
2023-01-12T07:35:44.349Z,38.00
2023-01-12T07:36:49.431Z,38.00
2023-01-12T07:39:16.354Z,38.00
2023-01-12T07:40:20.643Z,38.00
2023-01-12T07:41:43.643Z,38.00
2023-01-12T07:42:49.311Z,38.00
2023-01-12T07:43:54.800Z,38.00
2023-01-12T07:45:04.020Z,38.00
2023-01-12T07:46:09.147Z,38.00
2023-01-12T07:47:12.906Z,37.90
2023-01-12T07:48:22.299Z,37.90
2023-01-12T07:49:28.592Z,37.90
2023-01-12T07:50:32.173Z,38.00
2023-01-12T07:51:38.372Z,37.90
2023-01-12T07:52:46.075Z,37.90
2023-01-12T07:53:55.325Z,37.90
2023-01-12T07:55:00.325Z,37.90
2023-01-12T07:56:05.596Z,37.90
2023-01-12T07:57:13.224Z,38.10
2023-01-12T07:58:18.124Z,37.90
2023-01-12T07:59:27.060Z,37.80
2023-01-12T08:00:32.533Z,37.90
2023-01-12T08:01:39.396Z,37.80
2023-01-12T08:02:43.401Z,37.90
2023-01-12T08:03:52.030Z,37.80
2023-01-12T08:04:56.705Z,37.80
2023-01-12T08:06:02.127Z,37.80
2023-01-12T08:07:19.396Z,37.80
2023-01-12T08:08:31.585Z,37.80
2023-01-12T08:09:41.340Z,37.80
2023-01-12T08:10:50.269Z,37.80
2023-01-12T08:11:55.854Z,37.80
2023-01-12T08:13:05.801Z,37.70
2023-01-12T08:14:23.075Z,37.80
2023-01-12T08:15:30.052Z,37.70
2023-01-12T08:16:41.646Z,37.80
2023-01-12T08:17:48.163Z,37.70
2023-01-12T08:18:58.091Z,37.70
2023-01-12T08:20:04.048Z,37.70
2023-01-12T08:21:12.052Z,37.70
2023-01-12T08:22:19.384Z,37.70
2023-01-12T08:23:50.940Z,37.70
2023-01-12T08:25:00.025Z,37.70
2023-01-12T08:26:07.162Z,37.70
2023-01-12T08:27:19.537Z,37.70
2023-01-12T08:28:26.411Z,37.70
2023-01-12T08:29:33.040Z,37.60
2023-01-12T08:30:40.768Z,37.70
2023-01-12T08:31:44.927Z,37.70
2023-01-12T08:32:49.935Z,37.70
2023-01-12T08:33:54.400Z,37.60
2023-01-12T08:35:02.629Z,37.60
2023-01-12T08:36:08.655Z,37.60
2023-01-12T08:37:14.350Z,37.60
2023-01-12T08:38:20.148Z,37.60
2023-01-12T08:39:24.319Z,37.60
2023-01-12T08:40:47.544Z,37.90
2023-01-12T08:42:03.604Z,37.70
2023-01-12T08:43:08.737Z,37.60
2023-01-12T08:44:16.466Z,37.60
2023-01-12T08:45:21.648Z,37.60
2023-01-12T08:46:27.238Z,37.60
2023-01-12T08:47:34.842Z,37.80
2023-01-12T08:48:40.577Z,37.60
2023-01-12T08:49:45.879Z,37.60
2023-01-12T08:50:53.051Z,37.60
2023-01-12T08:51:58.418Z,37.60
2023-01-12T08:53:03.086Z,37.60
2023-01-12T08:54:09.296Z,37.60
2023-01-12T08:55:16.097Z,37.50
2023-01-12T08:56:26.443Z,37.60
2023-01-12T08:57:32.177Z,37.50
2023-01-12T08:58:37.488Z,37.50
2023-01-12T08:59:42.989Z,37.50
2023-01-12T09:00:53.020Z,37.50
2023-01-12T09:02:00.624Z,37.50
2023-01-12T09:03:07.395Z,37.40
2023-01-12T09:04:12.575Z,37.60
2023-01-12T09:05:18.240Z,37.50
2023-01-12T09:06:25.583Z,37.50
2023-01-12T09:07:33.890Z,37.40
2023-01-12T09:08:37.919Z,37.50
2023-01-12T09:09:49.214Z,37.50
2023-01-12T09:10:53.990Z,37.50
2023-01-12T09:12:06.927Z,37.50
2023-01-12T09:13:16.582Z,37.40
2023-01-12T09:14:23.305Z,37.40
2023-01-12T09:15:33.046Z,37.40
2023-01-12T09:16:39.387Z,37.40
2023-01-12T09:17:47.491Z,37.30
2023-01-12T09:18:51.479Z,38.00
2023-01-12T09:19:56.107Z,37.40
2023-01-12T09:21:02.879Z,37.80
2023-01-12T09:22:08.057Z,37.40
2023-01-12T09:23:13.035Z,37.40
2023-01-12T09:24:18.456Z,38.00
2023-01-12T09:25:26.300Z,37.40
2023-01-12T09:26:35.997Z,37.30
2023-01-12T09:27:41.164Z,37.40
2023-01-12T09:28:45.661Z,37.40
2023-01-12T09:29:53.263Z,37.30
2023-01-12T09:31:00.304Z,37.40
2023-01-12T09:32:11.932Z,37.30
2023-01-12T09:33:16.655Z,37.40
2023-01-12T09:34:20.651Z,37.40
2023-01-12T09:35:26.470Z,37.40
2023-01-12T09:36:39.552Z,37.30
2023-01-12T09:37:45.149Z,37.30
2023-01-12T09:38:52.025Z,37.30
2023-01-12T09:40:01.744Z,37.30
2023-01-12T09:41:18.589Z,37.30
2023-01-12T09:42:42.657Z,37.30
2023-01-12T09:44:05.765Z,37.30
2023-01-12T09:45:39.006Z,37.30
2023-01-12T09:47:00.356Z,37.30
2023-01-12T09:48:06.865Z,37.30
2023-01-12T09:49:10.271Z,37.30
2023-01-12T09:50:17.657Z,37.30
2023-01-12T09:51:30.240Z,37.30
2023-01-12T09:52:42.343Z,37.30
2023-01-12T09:53:48.406Z,37.20
2023-01-12T09:54:53.172Z,37.30
2023-01-12T09:56:17.072Z,37.20
2023-01-12T09:57:29.217Z,37.30
2023-01-12T09:58:49.786Z,37.20
2023-01-12T09:59:56.395Z,37.20
2023-01-12T10:01:04.208Z,37.20
2023-01-12T10:02:14.693Z,37.20
2023-01-12T10:03:25.484Z,37.30
2023-01-12T10:04:30.034Z,37.20
2023-01-12T10:05:58.220Z,37.20
2023-01-12T10:07:03.934Z,37.20
2023-01-12T10:08:18.508Z,37.20
2023-01-12T10:09:23.588Z,37.20
2023-01-12T10:10:28.147Z,37.20
2023-01-12T10:11:51.515Z,37.20
2023-01-12T10:13:01.809Z,37.20
2023-01-12T10:14:26.366Z,37.10
2023-01-12T10:15:47.144Z,37.20
2023-01-12T10:16:53.923Z,37.20
2023-01-12T10:18:16.188Z,37.20
2023-01-12T10:19:25.288Z,37.20
2023-01-12T10:20:38.593Z,37.10
2023-01-12T10:21:42.507Z,37.20
2023-01-12T10:22:57.583Z,37.20
2023-01-12T10:24:00.721Z,37.20
2023-01-12T10:25:07.989Z,37.10
2023-01-12T10:26:23.216Z,37.20
2023-01-12T10:27:26.612Z,37.10
2023-01-12T10:28:35.178Z,37.10
2023-01-12T10:29:45.032Z,37.00
2023-01-12T10:30:50.313Z,37.10
2023-01-12T10:31:55.551Z,37.10
2023-01-12T10:33:19.607Z,37.10
2023-01-12T10:34:24.873Z,37.10
2023-01-12T10:35:30.771Z,37.10
2023-01-12T10:36:37.180Z,37.10
2023-01-12T10:37:45.954Z,37.10
2023-01-12T10:38:52.333Z,37.10
2023-01-12T10:39:56.313Z,37.00
2023-01-12T10:41:19.111Z,37.10
2023-01-12T10:42:43.088Z,37.10
2023-01-12T10:44:07.548Z,37.10
2023-01-12T10:45:14.183Z,37.00
2023-01-12T10:46:18.373Z,37.00
2023-01-12T10:47:22.062Z,37.00
2023-01-12T10:48:32.320Z,37.10
2023-01-12T10:49:35.107Z,37.10
2023-01-12T10:50:39.310Z,37.00
2023-01-12T10:52:08.185Z,37.00
2023-01-12T10:53:21.883Z,37.00
2023-01-12T10:54:24.878Z,37.00
2023-01-12T10:55:39.799Z,37.00
2023-01-12T10:56:44.627Z,37.00
2023-01-12T10:57:49.679Z,37.10
2023-01-12T10:58:58.263Z,37.00
2023-01-12T11:00:06.067Z,37.00
2023-01-12T11:01:14.222Z,37.10
2023-01-12T11:02:18.795Z,37.10
2023-01-12T11:03:39.432Z,37.10
2023-01-12T11:04:45.304Z,37.10
2023-01-12T11:05:50.755Z,37.10
2023-01-12T11:06:57.965Z,37.10
2023-01-12T11:08:02.686Z,37.00
2023-01-12T11:09:19.315Z,37.10
2023-01-12T11:10:29.240Z,37.10
2023-01-12T11:11:34.958Z,37.10
2023-01-12T11:12:40.437Z,37.00
2023-01-12T11:13:45.382Z,37.10
2023-01-12T11:15:04.163Z,37.10
2023-01-12T11:16:12.905Z,37.10
2023-01-12T11:17:18.088Z,37.10
2023-01-12T11:18:30.697Z,37.20
2023-01-12T11:19:44.237Z,37.10
2023-01-12T11:20:46.692Z,37.10
2023-01-12T11:22:02.766Z,37.00
2023-01-12T11:23:21.186Z,37.20
2023-01-12T11:24:43.218Z,37.10
2023-01-12T11:25:47.531Z,37.00
2023-01-12T11:26:56.379Z,37.10
2023-01-12T11:28:05.813Z,37.10
2023-01-12T11:29:28.324Z,37.10
2023-01-12T11:30:36.431Z,37.10
2023-01-12T11:31:42.732Z,37.10
2023-01-12T11:32:48.564Z,37.00
2023-01-12T11:33:55.379Z,37.10
2023-01-12T11:35:05.680Z,37.10
2023-01-12T11:36:26.597Z,37.10
2023-01-12T11:37:34.937Z,37.10
2023-01-12T11:38:41.225Z,37.10
2023-01-12T11:39:48.348Z,37.00
2023-01-12T11:40:51.706Z,37.10
2023-01-12T11:42:14.007Z,37.10
2023-01-12T11:43:56.244Z,37.10
2023-01-12T11:45:08.174Z,37.10
2023-01-12T11:46:14.469Z,37.10
2023-01-12T11:47:22.488Z,37.10
2023-01-12T11:48:46.431Z,37.10
2023-01-12T11:50:02.456Z,37.10
2023-01-12T11:51:05.837Z,37.10
2023-01-12T11:52:14.565Z,37.10
2023-01-12T11:53:22.301Z,37.10
2023-01-12T11:54:27.338Z,37.10
2023-01-12T11:55:48.588Z,37.10
2023-01-12T11:57:08.724Z,37.10
2023-01-12T11:58:44.450Z,37.10
2023-01-12T11:59:59.144Z,37.10
2023-01-12T12:01:05.129Z,37.10
2023-01-12T12:02:19.200Z,37.10
2023-01-12T12:03:22.992Z,36.90
2023-01-12T12:04:33.409Z,37.10
2023-01-12T12:05:44.745Z,37.10
2023-01-12T12:06:56.398Z,37.00
2023-01-12T12:08:34.189Z,37.10
2023-01-12T12:09:39.277Z,37.10
2023-01-12T12:10:53.692Z,37.00
2023-01-12T12:12:01.507Z,37.00
2023-01-12T12:13:17.671Z,37.10
2023-01-12T12:14:20.828Z,37.10
2023-01-12T12:15:43.964Z,37.10
2023-01-12T12:17:01.146Z,37.10
2023-01-12T12:18:15.327Z,37.00
2023-01-12T12:19:37.273Z,37.00
2023-01-12T12:20:41.400Z,37.00
2023-01-12T12:21:50.356Z,37.00
2023-01-12T12:23:15.292Z,37.00
2023-01-12T12:24:21.137Z,37.10
2023-01-12T12:25:48.144Z,37.00
2023-01-12T12:27:01.897Z,37.00
2023-01-12T12:28:14.534Z,37.00
2023-01-12T12:29:18.900Z,37.00
2023-01-12T12:30:29.315Z,36.90
2023-01-12T12:31:35.423Z,37.00
2023-01-12T12:32:54.585Z,37.00
2023-01-12T12:34:38.686Z,37.00
2023-01-12T12:35:49.746Z,37.00
2023-01-12T12:36:56.623Z,37.00
2023-01-12T12:38:09.440Z,37.10
2023-01-12T12:39:26.976Z,37.00
2023-01-12T12:40:57.829Z,36.90
2023-01-12T12:42:18.833Z,37.00
2023-01-12T12:43:47.595Z,37.00
2023-01-12T12:45:08.825Z,36.90
2023-01-12T12:46:30.595Z,37.60
2023-01-12T12:47:52.569Z,37.00
2023-01-12T12:49:06.690Z,37.00
2023-01-12T12:50:22.225Z,36.90
2023-01-12T12:51:28.350Z,37.00
2023-01-12T12:52:37.276Z,36.90
2023-01-12T12:53:44.371Z,37.00
2023-01-12T12:54:48.486Z,37.00
2023-01-12T12:55:52.938Z,37.00
2023-01-12T12:56:59.314Z,37.00
2023-01-12T12:58:26.656Z,36.90
2023-01-12T12:59:39.071Z,37.10
2023-01-12T13:00:50.078Z,37.00
2023-01-12T13:01:55.247Z,37.00
2023-01-12T13:03:02.579Z,37.00
2023-01-12T13:04:09.880Z,37.00
2023-01-12T13:05:34.329Z,36.90
2023-01-12T13:06:47.402Z,37.00
2023-01-12T13:07:54.425Z,37.00
2023-01-12T13:09:00.914Z,37.00
2023-01-12T13:10:18.201Z,37.00
2023-01-12T13:11:43.491Z,36.90
2023-01-12T13:12:56.168Z,37.00
2023-01-12T13:14:03.196Z,36.50
2023-01-12T13:15:17.553Z,36.90
2023-01-12T13:16:24.408Z,36.90
2023-01-12T13:17:27.699Z,36.90
2023-01-12T13:18:43.156Z,37.00
2023-01-12T13:19:50.315Z,37.00
2023-01-12T13:20:56.719Z,36.90
2023-01-12T13:22:21.187Z,36.90
2023-01-12T13:23:43.715Z,37.00
2023-01-12T13:24:50.552Z,36.90
2023-01-12T13:25:58.779Z,36.90
2023-01-12T13:27:27.591Z,36.90
2023-01-12T13:28:33.490Z,36.90
2023-01-12T13:29:41.190Z,36.90
2023-01-12T13:30:55.700Z,36.90
2023-01-12T13:32:21.105Z,36.90
2023-01-12T13:33:27.247Z,37.00
2023-01-12T13:34:35.579Z,36.90
2023-01-12T13:35:42.220Z,36.90
2023-01-12T13:36:49.612Z,36.90
2023-01-12T13:37:59.164Z,37.00
2023-01-12T13:39:08.613Z,36.90
2023-01-12T13:40:22.525Z,36.90
2023-01-12T13:41:48.004Z,36.90
2023-01-12T13:43:14.560Z,37.00
2023-01-12T13:44:24.462Z,36.90
2023-01-12T13:45:29.831Z,36.90
2023-01-12T13:46:43.130Z,36.80
2023-01-12T13:47:48.812Z,37.50
2023-01-12T13:48:53.126Z,36.90
2023-01-12T13:50:00.395Z,36.90
2023-01-12T13:51:07.539Z,36.90
2023-01-12T13:52:41.130Z,36.90
2023-01-12T13:54:00.715Z,36.90
2023-01-12T13:55:21.953Z,36.90
2023-01-12T13:56:27.686Z,36.90
2023-01-12T13:57:39.552Z,36.80
2023-01-12T13:58:46.503Z,36.90
2023-01-12T14:00:11.337Z,36.90
2023-01-12T14:01:44.319Z,36.90
2023-01-12T14:02:50.580Z,36.90
2023-01-12T14:04:21.735Z,36.90
2023-01-12T14:05:34.776Z,36.80
2023-01-12T14:06:53.190Z,36.90
2023-01-12T14:07:58.157Z,36.90
2023-01-12T14:09:18.715Z,36.90
2023-01-12T14:10:31.098Z,36.90
2023-01-12T14:11:42.129Z,37.10
2023-01-12T14:12:58.385Z,36.90
2023-01-12T14:14:46.956Z,37.00
2023-01-12T14:16:09.159Z,37.10
2023-01-12T14:17:43.116Z,36.90
2023-01-12T14:18:49.859Z,36.90
2023-01-12T14:20:21.708Z,36.90
2023-01-12T14:21:31.827Z,36.90
2023-01-12T14:22:36.282Z,36.90
2023-01-12T14:23:40.413Z,36.80
2023-01-12T14:24:45.630Z,36.90
2023-01-12T14:26:12.825Z,36.90
2023-01-12T14:27:26.124Z,36.90
2023-01-12T14:28:31.980Z,36.90
2023-01-12T14:29:43.867Z,36.90
2023-01-12T14:30:53.767Z,36.80
2023-01-12T14:32:10.406Z,36.90
2023-01-12T14:33:18.815Z,36.90
2023-01-12T14:34:23.748Z,36.90
2023-01-12T14:35:33.361Z,36.90
2023-01-12T14:36:47.047Z,36.90
2023-01-12T14:37:58.717Z,36.90
2023-01-12T14:39:08.257Z,36.90
2023-01-12T14:40:20.095Z,36.90
2023-01-12T14:41:43.339Z,36.90
2023-01-12T14:43:05.928Z,37.00
2023-01-12T14:44:36.012Z,36.90
2023-01-12T14:46:03.347Z,36.90
2023-01-12T14:47:15.237Z,36.90
2023-01-12T14:48:21.260Z,36.90
2023-01-12T14:49:35.751Z,36.80
2023-01-12T14:50:40.040Z,36.90
2023-01-12T14:51:52.269Z,36.90
2023-01-12T14:52:56.696Z,36.80
2023-01-12T14:54:18.125Z,36.80
2023-01-12T14:55:28.682Z,36.80
2023-01-12T14:56:51.225Z,36.90
2023-01-12T14:57:59.499Z,36.80
2023-01-12T14:59:09.171Z,36.80
2023-01-12T15:00:22.438Z,36.80
2023-01-12T15:01:36.689Z,36.80
2023-01-12T15:02:44.544Z,36.90
2023-01-12T15:03:51.157Z,36.80
2023-01-12T15:04:57.935Z,36.80
2023-01-12T15:06:02.659Z,36.80
2023-01-12T15:07:06.435Z,36.80
2023-01-12T15:08:11.137Z,36.80
2023-01-12T15:09:29.598Z,36.80
2023-01-12T15:10:41.025Z,36.80
2023-01-12T15:11:48.823Z,36.80
2023-01-12T15:13:01.576Z,36.80
2023-01-12T15:14:23.226Z,36.80
2023-01-12T15:15:50.161Z,36.80
2023-01-12T15:17:14.472Z,36.80
2023-01-12T15:20:16.715Z,36.80
2023-01-12T15:21:41.768Z,36.80
2023-01-12T15:23:08.816Z,36.80
2023-01-12T15:24:39.132Z,36.80
2023-01-12T15:25:49.785Z,36.80
2023-01-12T15:28:41.396Z,36.80
2023-01-12T15:29:57.343Z,36.80
2023-01-12T15:31:04.829Z,36.80
2023-01-12T15:32:21.173Z,36.80
2023-01-12T15:33:35.781Z,36.70
2023-01-12T15:34:51.507Z,36.70
2023-01-12T15:36:00.030Z,36.70
2023-01-12T15:37:15.552Z,36.80
2023-01-12T15:38:25.672Z,36.70
2023-01-12T15:39:32.092Z,36.90
2023-01-12T15:40:45.376Z,36.70
2023-01-12T15:43:40.189Z,36.70
2023-01-12T15:44:55.343Z,36.70
2023-01-12T15:46:14.263Z,36.70
2023-01-12T15:47:21.447Z,36.70
2023-01-12T15:48:28.820Z,36.70
2023-01-12T15:49:39.151Z,36.70
2023-01-12T15:50:49.052Z,36.70
2023-01-12T15:52:21.616Z,36.70
2023-01-12T15:53:28.193Z,36.70
2023-01-12T15:54:46.303Z,36.70
2023-01-12T15:55:53.547Z,36.70
2023-01-12T15:57:08.352Z,36.70
2023-01-12T15:58:20.257Z,36.70
2023-01-12T15:59:29.081Z,36.70
2023-01-12T16:00:35.344Z,36.70
2023-01-12T16:01:47.532Z,36.70
2023-01-12T16:02:54.111Z,36.70
2023-01-12T16:05:21.679Z,36.70
2023-01-12T16:07:57.950Z,36.60
2023-01-12T16:09:14.215Z,36.60
2023-01-12T16:10:26.408Z,36.20
2023-01-12T16:11:44.000Z,36.60
2023-01-12T16:12:48.176Z,36.70
2023-01-12T16:13:55.570Z,36.60
2023-01-12T16:15:01.630Z,36.60
2023-01-12T16:16:24.488Z,36.60
2023-01-12T16:17:35.728Z,36.60
2023-01-12T16:18:52.357Z,36.60
2023-01-12T16:20:03.608Z,36.60
2023-01-12T16:21:07.472Z,36.60
2023-01-12T16:22:21.908Z,36.60
2023-01-12T16:24:54.056Z,36.60
2023-01-12T16:26:02.178Z,36.60